Nearby METAR Reports

 

KIAD - Wash Dc/Dulles, Virginia, USA
Distance from station: ESE 7mi, 11km
Updated: Sun, 26-May-2019 1:52pm EDT
Mostly cloudy
Mostly cloudy
 Wind from WNW
Wind: WNW 10 mph , 17 km/h
Temperature: 88°F , 31°C
Heat Index: 91°F , 33°C
Dew Point: 66°F , 19°C
Humidity: 49%
Barometer: 29.99 inHg , 1015.6 hPa
Clouds: Mostly cloudy
Visibility: 10 miles , 16 km
Cloud details: Mostly cloudy 5000 ft
Mostly cloudy 11000 ft
Mostly cloudy 25000 ft
2019/05/26 17:52 KIAD 261752Z 30009KT 10SM BKN050TCU BKN110 BKN250 31/19 A2999 RMK AO2 SLP152 CB DSNT S TCU E-W T03060194 10311 20217 58012
KJYO - Leesburg/Godfrey, Virginia, USA
Distance from station: N 7mi, 12km
Updated: Sun, 26-May-2019 1:55pm EDT
Nearby thunderstorm, Partly cloudy
Nearby thunderstorm, Partly cloudy
 Wind from NNW
Wind: NNW 8 mph , 13 km/h
Temperature: 84°F , 29°C
Heat Index: 89°F , 32°C
Dew Point: 72°F , 22°C
Humidity: 66%
Barometer: 30.01 inHg , 1016.3 hPa
Summary: Nearby Thunderstorm
Clouds: Partly cloudy
Visibility: 10 miles , 16 km
Cloud details: Partly cloudy 12000 ft
2019/05/26 17:55 KJYO 261755Z AUTO 33007KT 280V340 10SM VCTS SCT120 29/22 A3001 RMK AO2
 
KHEF - Manassas Muni, Virginia, USA
Distance from station: S 17mi, 28km
Updated: Sun, 26-May-2019 1:56pm EDT
Few Clouds
Few Clouds
 Wind from varies
Wind: varies 7 mph , 11 km/h
Temperature: 88°F , 31°C
Heat Index: 95°F , 35°C
Dew Point: 72°F , 22°C
Humidity: 59%
Barometer: 29.99 inHg , 1015.6 hPa
Clouds: Few Clouds
Visibility: 10 miles , 16 km
Cloud details: Few Clouds 6000 ft
2019/05/26 17:56 KHEF 261756Z VRB06KT 10SM FEW060 31/22 A2999 RMK AO2 SLP164 6//// T03060217 10306 20200 58012 PNO $
KGAI - Gaithersburg, Maryland, USA
Distance from station: NE 26mi, 41km
Updated: Sun, 26-May-2019 1:56pm EDT
Clear
Clear
 Wind from NW
Wind: NW 7 mph , 11 km/h
Temperature: 82°F , 28°C
Heat Index: 86°F , 30°C
Dew Point: 70°F , 21°C
Humidity: 66%
Barometer: 30.02 inHg , 1016.6 hPa
Clouds: Clear
Visibility: 10 miles , 16 km
2019/05/26 17:56 KGAI 261756Z AUTO 31006KT 10SM CLR 28/21 A3002 RMK AO2 SLP186 T02780206 10294 20222 58008
 
KDAA - Fort Belvoir/Dav, Virginia, USA
Distance from station: SE 27mi, 44km
Updated: Sat, 25-May-2019 9:55pm EDT
NOT Current
Mostly cloudy
Mostly cloudy
 Wind from varies
Wind: varies 7 mph , 11 km/h
Temperature: 72°F , 22°C
Dew Point: 64°F , 18°C
Humidity: 78%
Barometer: 30.04 inHg , 1017.3 hPa
Clouds: Mostly cloudy
Visibility: 10 miles , 16 km
Cloud details: Few Clouds 5000 ft
Mostly cloudy 12000 ft
Mostly cloudy 21000 ft
2019/05/26 01:55 KDAA 260155Z VRB06KT 10SM FEW050 BKN120 BKN210 22/18 A3004 RMK A02A SLPNO WND DATA / ALSTG ESTMD
KHWY - Warrenton, Virginia, USA
Distance from station: SSW 27mi, 44km
Updated: Sun, 26-May-2019 1:55pm EDT
Mostly cloudy
Mostly cloudy
 Wind from WSW
Wind: WSW 3 mph , 6 km/h
Temperature: 90°F , 32°C
Heat Index: 93°F , 34°C
Dew Point: 66°F , 19°C
Humidity: 46%
Barometer: 29.99 inHg , 1015.6 hPa
Clouds: Mostly cloudy
Visibility: 10 miles , 16 km
Cloud details: Partly cloudy 5000 ft
Mostly cloudy 6500 ft
2019/05/26 17:55 KHWY 261755Z AUTO 25003KT 10SM SCT050 BKN065 32/19 A2999 RMK AO2 LTG DSNT NE AND W T03210185 10321 20219
 
KDCA - Washington/Natl, Washington D.c., USA
Distance from station: ESE 30mi, 48km
Updated: Sun, 26-May-2019 1:52pm EDT
Mostly cloudy
Mostly cloudy
 Wind from W
Wind: W 13 mph , 20 km/h, Gust: 16 mph , 26 km/h
Temperature: 90°F , 32°C
Heat Index: 94°F , 34°C
Dew Point: 68°F , 20°C
Humidity: 49%
Barometer: 29.97 inHg , 1014.9 hPa
Clouds: Mostly cloudy
Visibility: 10 miles , 16 km
Cloud details: Mostly cloudy 5000 ft
Mostly cloudy 13000 ft
Mostly cloudy 25000 ft
2019/05/26 17:52 KDCA 261752Z 28011G14KT 10SM BKN050TCU BKN130 BKN250 32/20 A2997 RMK AO2 SLP150 TCU ALQDS T03170200 10317 20228 58016
KFDK - Frederick, Maryland, USA
Distance from station: NNE 33mi, 53km
Updated: Sun, 26-May-2019 1:47pm EDT
Mostly cloudy
Mostly cloudy
 Wind from W
Wind: W 9 mph , 15 km/h
Temperature: 82°F , 28°C
Heat Index: 86°F , 30°C
Dew Point: 70°F , 21°C
Humidity: 66%
Barometer: 30.03 inHg , 1016.9 hPa
Clouds: Mostly cloudy
Visibility: 10 miles , 16 km
Cloud details: Partly cloudy 3300 ft
Mostly cloudy 12000 ft
2019/05/26 17:47 KFDK 261747Z 27008KT 10SM SCT033 BKN120 28/21 A3003
 
KOKV - Winchester Rgnl, Virginia, USA
Distance from station: WNW 33mi, 54km
Updated: Sun, 26-May-2019 1:55pm EDT
Nearby thunderstorm, Mostly cloudy
Nearby thunderstorm, Mostly cloudy
 Wind from WSW
Wind: WSW 10 mph , 17 km/h, Gust: 17 mph , 28 km/h
Temperature: 82°F , 28°C
Heat Index: 84°F , 29°C
Dew Point: 64°F , 18°C
Humidity: 55%
Barometer: 30.03 inHg , 1016.9 hPa
Summary: Nearby Thunderstorm
Clouds: Mostly cloudy
Visibility: 10 miles , 16 km
Cloud details: Mostly cloudy 12000 ft
2019/05/26 17:55 KOKV 261755Z AUTO 24009G15KT 10SM VCTS BKN120 28/18 A3003 RMK AO2
KCJR - Culpeper, Virginia, USA
Distance from station: SSW 34mi, 54km
Updated: Sun, 26-May-2019 1:55pm EDT
Partly cloudy
Partly cloudy
 Wind from WSW
Wind: WSW 6 mph , 9 km/h
Temperature: 88°F , 31°C
Heat Index: 91°F , 33°C
Dew Point: 66°F , 19°C
Humidity: 49%
Barometer: 30.00 inHg , 1015.9 hPa
Clouds: Partly cloudy
Visibility: 10 miles , 16 km
Cloud details: Partly cloudy 5000 ft
Partly cloudy 9000 ft
2019/05/26 17:55 KCJR 261755Z AUTO 25005KT 10SM SCT050 SCT090 31/19 A3000 RMK AO2 LTG DSNT NE AND W T03140187 10320 20229
 
KCGS - College Park, Maryland, USA
Distance from station: E 35mi, 56km
Updated: Sun, 26-May-2019 2:03pm EDT
Partly cloudy
Partly cloudy
 Wind from NW
Wind: NW 9 mph , 15 km/h
Temperature: 88°F , 31°C
Heat Index: 91°F , 33°C
Dew Point: 66°F , 19°C
Humidity: 49%
Barometer: 29.96 inHg , 1014.6 hPa
Clouds: Partly cloudy
Visibility: 10 miles , 16 km
Cloud details: Partly cloudy 5000 ft
Partly cloudy 6000 ft
2019/05/26 18:03 KCGS 261803Z AUTO 32008KT 10SM SCT050 SCT060 31/19 A2996 RMK AO1 T03050186
KNYG - Quantico Mcaf, Virginia, USA
Distance from station: SSE 35mi, 57km
Updated: Sun, 26-May-2019 1:56pm EDT
Partly cloudy
Partly cloudy
 Wind from S
Wind: S 7 mph , 11 km/h
Temperature: 84°F , 29°C
Heat Index: 92°F , 33°C
Dew Point: 75°F , 24°C
Humidity: 74%
Barometer: 29.99 inHg , 1015.6 hPa
Clouds: Partly cloudy
Visibility: 10 miles , 16 km
Cloud details: Partly cloudy 6500 ft
Partly cloudy 8000 ft
2019/05/26 17:56 KNYG 261756Z AUTO 18006KT 10SM SCT065 SCT080 29/24 A2999 RMK AO2 SLP156 T02940239 10300 20222 58016
 
KFRR - Fort Royal, Virginia, USA
Distance from station: W 37mi, 59km
Updated: Sun, 26-May-2019 1:55pm EDT
Mostly cloudy
Mostly cloudy
 Wind from WSW
Wind: WSW 3 mph , 6 km/h
Temperature: 84°F , 29°C
Heat Index: 87°F , 31°C
Dew Point: 68°F , 20°C
Humidity: 58%
Barometer: 30.00 inHg , 1015.9 hPa
Clouds: Mostly cloudy
Cloud details: Partly cloudy 5000 ft
Mostly cloudy 11000 ft
2019/05/26 17:55 KFRR 261755Z AUTO 24003KT SCT050 BKN110 29/20 A3000 RMK AO1
KMRB - Martinsburg, West Virginia, USA
Distance from station: NW 38mi, 61km
Updated: Sun, 26-May-2019 1:53pm EDT
Clear
Clear
 Wind from WSW
Wind: WSW 5 mph , 7 km/h
Temperature: 81°F , 27°C
Heat Index: 84°F , 29°C
Dew Point: 68°F , 20°C
Humidity: 66%
Barometer: 30.00 inHg , 1015.9 hPa
Clouds: Clear
Visibility: 10 miles , 16 km
2019/05/26 17:53 KMRB 261753Z 25004KT 10SM CLR 27/20 A3000 RMK AO2 SLP153 60002 T02670200 10283 20222 58008
 
KADW - Andrews Afb, Maryland, USA
Distance from station: ESE 39mi, 63km
Updated: Sun, 26-May-2019 1:56pm EDT
Mostly cloudy
Mostly cloudy
 Wind from SSW
Wind: SSW 10 mph , 17 km/h
Temperature: 86°F , 30°C
Heat Index: 89°F , 32°C
Dew Point: 68°F , 20°C
Humidity: 55%
Barometer: 29.98 inHg , 1015.2 hPa
Clouds: Mostly cloudy
Visibility: 10 miles , 16 km
Cloud details: Few Clouds 5000 ft
Few Clouds 8000 ft
Partly cloudy 10000 ft
Partly cloudy 15000 ft
Partly cloudy 17000 ft
Mostly cloudy 20000 ft
2019/05/26 17:56 KADW 261756Z AUTO 21009KT 10SM FEW050 FEW080 SCT100 SCT150 SCT170 BKN200 30/20 A2998 RMK AO2 DZB00E01 SLP157 P0000 60000 T03000202 10310 20231 57013 $
KRMN - Stafford Regnl, Virginia, USA
Distance from station: S 39mi, 63km
Updated: Sun, 26-May-2019 1:55pm EDT
Overcast
Overcast
 Wind from WSW
Wind: WSW 3 mph , 6 km/h
Temperature: 88°F , 31°C
Heat Index: 93°F , 34°C
Dew Point: 70°F , 21°C
Humidity: 55%
Barometer: 30.03 inHg , 1016.9 hPa
Clouds: Overcast
Visibility: 10 miles , 16 km
Cloud details: Overcast 6000 ft
2019/05/26 17:55 KRMN 261755Z AUTO 25003KT 10SM OVC060 31/21 A3003 RMK AO2 LTG DSNT N T03060208 10313 20217
 
KFME - Fort Meade, Maryland, USA
Distance from station: ENE 44mi, 70km
Updated: Sun, 26-May-2019 2:03pm EDT
Clear
Clear
 Wind from WNW
Wind: WNW 7 mph , 11 km/h
Temperature: 81°F , 27°C
Heat Index: 85°F , 29°C
Dew Point: 70°F , 21°C
Humidity: 70%
Barometer: 30.00 inHg , 1015.9 hPa
Clouds: Clear
Visibility: 10 miles , 16 km
2019/05/26 18:03 KFME 261803Z AUTO 30006KT 10SM CLR 27/21 A3000 RMK AO1
KRSP - Nsf Thurmont, Maryland, USA
Distance from station: N 48mi, 77km
Updated: Sat, 18-May-2019 1:54pm EDT
NOT Current

 
2019/05/18 17:54 KRSP 181754Z AUTO VRB04KTLS21/16 A3004 RMK AO2 SLP168 T02110161 10228 20172 $
 
KEZF - Fredericksb/Shan, Virginia, USA
Distance from station: S 48mi, 78km
Updated: Sun, 26-May-2019 1:55pm EDT
Mostly cloudy
Mostly cloudy
 Wind from WSW
Wind: WSW 7 mph , 11 km/h
Temperature: 90°F , 32°C
Heat Index: 94°F , 34°C
Dew Point: 68°F , 20°C
Humidity: 49%
Barometer: 29.98 inHg , 1015.2 hPa
Clouds: Mostly cloudy
Visibility: 10 miles , 16 km
Cloud details: Partly cloudy 5500 ft
Mostly cloudy 7500 ft
2019/05/26 17:55 KEZF 261755Z AUTO 24006KT 10SM SCT055 BKN075 32/20 A2998 RMK AO2 T03190203
KBWI - Balto/Wash Intl, Maryland, USA
Distance from station: ENE 49mi, 80km
Updated: Sun, 26-May-2019 1:54pm EDT
Mostly cloudy
Mostly cloudy
 Wind from W
Wind: W 9 mph , 15 km/h
Temperature: 84°F , 29°C
Heat Index: 87°F , 31°C
Dew Point: 68°F , 20°C
Humidity: 58%
Barometer: 29.96 inHg , 1014.6 hPa
Clouds: Mostly cloudy
Visibility: 10 miles , 16 km
Cloud details: Partly cloudy 6000 ft
Mostly cloudy 14000 ft
Mostly cloudy 25000 ft
2019/05/26 17:54 KBWI 261754Z 28008KT 10SM SCT060TCU BKN140 BKN250 29/20 A2996 RMK AO2 RAB31E39 SLP145 TCU S-W P0000 60000 T02940200 10311 20233 58014